sensor_id;sensor_type;location;lat;lon;timestamp;temperature;humidity
69747;DHT22;57018;50.278;19.134;2023-02-21T00:00:43;10.90;82.10
69747;DHT22;57018;50.278;19.134;2023-02-21T00:03:30;10.90;82.60
69747;DHT22;57018;50.278;19.134;2023-02-21T00:06:18;10.70;82.40
69747;DHT22;57018;50.278;19.134;2023-02-21T00:09:06;10.80;82.60
69747;DHT22;57018;50.278;19.134;2023-02-21T00:11:54;10.80;82.60
69747;DHT22;57018;50.278;19.134;2023-02-21T00:14:42;10.80;83.00
69747;DHT22;57018;50.278;19.134;2023-02-21T00:17:31;10.70;83.30
69747;DHT22;57018;50.278;19.134;2023-02-21T00:20:19;10.70;82.70
69747;DHT22;57018;50.278;19.134;2023-02-21T00:23:06;10.70;82.40
69747;DHT22;57018;50.278;19.134;2023-02-21T00:25:54;10.70;82.20
69747;DHT22;57018;50.278;19.134;2023-02-21T00:28:44;10.70;81.50
69747;DHT22;57018;50.278;19.134;2023-02-21T00:31:32;10.70;81.40
69747;DHT22;57018;50.278;19.134;2023-02-21T00:34:19;10.70;81.50
69747;DHT22;57018;50.278;19.134;2023-02-21T00:37:07;10.60;81.90
69747;DHT22;57018;50.278;19.134;2023-02-21T00:39:54;10.80;82.70
69747;DHT22;57018;50.278;19.134;2023-02-21T00:42:41;10.60;83.40
69747;DHT22;57018;50.278;19.134;2023-02-21T00:45:29;10.60;84.00
69747;DHT22;57018;50.278;19.134;2023-02-21T00:48:21;10.50;85.40
69747;DHT22;57018;50.278;19.134;2023-02-21T00:51:09;10.50;86.50
69747;DHT22;57018;50.278;19.134;2023-02-21T00:53:56;10.30;88.10
69747;DHT22;57018;50.278;19.134;2023-02-21T00:56:45;10.30;89.10
69747;DHT22;57018;50.278;19.134;2023-02-21T00:59:33;10.10;90.20
69747;DHT22;57018;50.278;19.134;2023-02-21T01:02:20;10.00;91.10
69747;DHT22;57018;50.278;19.134;2023-02-21T01:05:08;10.00;91.30
69747;DHT22;57018;50.278;19.134;2023-02-21T01:07:56;9.90;92.00
69747;DHT22;57018;50.278;19.134;2023-02-21T01:10:43;9.90;92.20
69747;DHT22;57018;50.278;19.134;2023-02-21T01:13:31;9.90;92.40
69747;DHT22;57018;50.278;19.134;2023-02-21T01:16:18;9.70;92.40
69747;DHT22;57018;50.278;19.134;2023-02-21T01:19:06;9.80;92.60
69747;DHT22;57018;50.278;19.134;2023-02-21T01:21:53;9.80;93.20
69747;DHT22;57018;50.278;19.134;2023-02-21T01:24:40;9.90;93.20
69747;DHT22;57018;50.278;19.134;2023-02-21T01:27:28;9.80;94.30
69747;DHT22;57018;50.278;19.134;2023-02-21T01:30:16;9.80;94.40
69747;DHT22;57018;50.278;19.134;2023-02-21T01:33:04;9.80;95.20
69747;DHT22;57018;50.278;19.134;2023-02-21T01:35:51;9.70;96.40
69747;DHT22;57018;50.278;19.134;2023-02-21T01:38:39;9.80;97.20
69747;DHT22;57018;50.278;19.134;2023-02-21T01:41:27;9.60;97.40
69747;DHT22;57018;50.278;19.134;2023-02-21T01:47:11;9.60;98.30
69747;DHT22;57018;50.278;19.134;2023-02-21T01:50:06;9.40;98.90
69747;DHT22;57018;50.278;19.134;2023-02-21T01:52:55;9.30;99.20
69747;DHT22;57018;50.278;19.134;2023-02-21T01:55:43;9.40;99.90
69747;DHT22;57018;50.278;19.134;2023-02-21T01:58:32;9.50;99.90
69747;DHT22;57018;50.278;19.134;2023-02-21T02:01:28;9.20;99.90
69747;DHT22;57018;50.278;19.134;2023-02-21T02:04:19;9.30;99.90
69747;DHT22;57018;50.278;19.134;2023-02-21T02:07:07;9.00;99.90
69747;DHT22;57018;50.278;19.134;2023-02-21T02:09:55;9.30;99.90
69747;DHT22;57018;50.278;19.134;2023-02-21T02:12:58;9.10;99.90
69747;DHT22;57018;50.278;19.134;2023-02-21T02:15:40;9.10;99.90
69747;DHT22;57018;50.278;19.134;2023-02-21T02:21:48;9.00;99.90
69747;DHT22;57018;50.278;19.134;2023-02-21T02:24:47;8.80;99.90
69747;DHT22;57018;50.278;19.134;2023-02-21T02:27:52;8.70;99.90
69747;DHT22;57018;50.278;19.134;2023-02-21T02:36:43;8.50;99.90
69747;DHT22;57018;50.278;19.134;2023-02-21T02:39:20;8.50;99.90
69747;DHT22;57018;50.278;19.134;2023-02-21T02:42:01;8.30;99.90
69747;DHT22;57018;50.278;19.134;2023-02-21T02:44:40;8.60;99.90
69747;DHT22;57018;50.278;19.134;2023-02-21T02:47:17;8.50;99.90
69747;DHT22;57018;50.278;19.134;2023-02-21T02:49:50;8.40;99.90
69747;DHT22;57018;50.278;19.134;2023-02-21T02:52:20;8.50;99.90
69747;DHT22;57018;50.278;19.134;2023-02-21T02:55:00;8.40;99.90
69747;DHT22;57018;50.278;19.134;2023-02-21T02:57:32;8.60;99.90
69747;DHT22;57018;50.278;19.134;2023-02-21T03:00:10;8.50;99.90
69747;DHT22;57018;50.278;19.134;2023-02-21T03:02:54;8.40;99.90
69747;DHT22;57018;50.278;19.134;2023-02-21T03:05:46;8.40;99.90
69747;DHT22;57018;50.278;19.134;2023-02-21T03:08:26;8.50;99.90
69747;DHT22;57018;50.278;19.134;2023-02-21T03:11:04;8.50;99.90
69747;DHT22;57018;50.278;19.134;2023-02-21T03:13:39;8.50;99.90
69747;DHT22;57018;50.278;19.134;2023-02-21T03:16:16;8.40;99.90
69747;DHT22;57018;50.278;19.134;2023-02-21T03:18:49;8.50;99.90
69747;DHT22;57018;50.278;19.134;2023-02-21T03:21:24;8.50;99.90
69747;DHT22;57018;50.278;19.134;2023-02-21T03:23:59;8.60;99.90
69747;DHT22;57018;50.278;19.134;2023-02-21T03:26:33;8.50;99.90
69747;DHT22;57018;50.278;19.134;2023-02-21T03:29:04;8.60;99.90
69747;DHT22;57018;50.278;19.134;2023-02-21T03:31:38;8.50;99.90
69747;DHT22;57018;50.278;19.134;2023-02-21T03:34:10;8.60;99.90
69747;DHT22;57018;50.278;19.134;2023-02-21T03:36:40;8.30;99.90
69747;DHT22;57018;50.278;19.134;2023-02-21T03:39:11;8.50;99.90
69747;DHT22;57018;50.278;19.134;2023-02-21T03:41:41;8.70;99.90
69747;DHT22;57018;50.278;19.134;2023-02-21T03:44:11;8.50;99.90
69747;DHT22;57018;50.278;19.134;2023-02-21T03:46:40;8.40;99.90
69747;DHT22;57018;50.278;19.134;2023-02-21T03:49:10;8.50;99.90
69747;DHT22;57018;50.278;19.134;2023-02-21T03:51:40;8.50;99.90
69747;DHT22;57018;50.278;19.134;2023-02-21T03:54:10;8.40;99.90
69747;DHT22;57018;50.278;19.134;2023-02-21T03:56:40;8.50;99.90
69747;DHT22;57018;50.278;19.134;2023-02-21T03:59:10;8.40;99.90
69747;DHT22;57018;50.278;19.134;2023-02-21T04:01:40;8.50;99.90
69747;DHT22;57018;50.278;19.134;2023-02-21T04:04:09;8.50;99.90
69747;DHT22;57018;50.278;19.134;2023-02-21T04:06:39;8.40;99.90
69747;DHT22;57018;50.278;19.134;2023-02-21T04:09:09;8.40;99.90
69747;DHT22;57018;50.278;19.134;2023-02-21T04:11:43;8.10;99.90
69747;DHT22;57018;50.278;19.134;2023-02-21T04:14:13;8.30;99.90
69747;DHT22;57018;50.278;19.134;2023-02-21T04:16:43;8.30;99.90
69747;DHT22;57018;50.278;19.134;2023-02-21T04:19:13;8.30;99.90
69747;DHT22;57018;50.278;19.134;2023-02-21T04:21:43;8.40;99.90
69747;DHT22;57018;50.278;19.134;2023-02-21T04:24:13;8.30;99.90
69747;DHT22;57018;50.278;19.134;2023-02-21T04:26:42;8.40;99.90
69747;DHT22;57018;50.278;19.134;2023-02-21T04:29:12;8.40;99.90
69747;DHT22;57018;50.278;19.134;2023-02-21T04:31:42;8.20;99.90
69747;DHT22;57018;50.278;19.134;2023-02-21T04:34:12;8.30;99.90
69747;DHT22;57018;50.278;19.134;2023-02-21T04:36:42;8.30;99.90
69747;DHT22;57018;50.278;19.134;2023-02-21T04:39:13;8.30;99.90
69747;DHT22;57018;50.278;19.134;2023-02-21T04:41:43;8.30;99.90
69747;DHT22;57018;50.278;19.134;2023-02-21T04:44:13;8.40;99.90
69747;DHT22;57018;50.278;19.134;2023-02-21T04:46:45;8.20;99.90
69747;DHT22;57018;50.278;19.134;2023-02-21T04:49:15;8.30;99.90
69747;DHT22;57018;50.278;19.134;2023-02-21T04:51:46;8.30;99.90
69747;DHT22;57018;50.278;19.134;2023-02-21T04:54:16;8.20;99.90
69747;DHT22;57018;50.278;19.134;2023-02-21T04:56:46;8.40;99.90
69747;DHT22;57018;50.278;19.134;2023-02-21T04:59:16;8.20;99.90
69747;DHT22;57018;50.278;19.134;2023-02-21T05:01:46;8.30;99.90
69747;DHT22;57018;50.278;19.134;2023-02-21T05:04:16;8.30;99.90
69747;DHT22;57018;50.278;19.134;2023-02-21T05:06:45;8.40;99.90
69747;DHT22;57018;50.278;19.134;2023-02-21T05:09:15;8.30;99.90
69747;DHT22;57018;50.278;19.134;2023-02-21T05:11:45;8.30;99.90
69747;DHT22;57018;50.278;19.134;2023-02-21T05:14:15;8.20;99.90
69747;DHT22;57018;50.278;19.134;2023-02-21T05:16:45;8.20;99.90
69747;DHT22;57018;50.278;19.134;2023-02-21T05:19:19;8.10;99.90
69747;DHT22;57018;50.278;19.134;2023-02-21T05:21:56;8.10;99.90
69747;DHT22;57018;50.278;19.134;2023-02-21T05:24:28;8.30;99.90
69747;DHT22;57018;50.278;19.134;2023-02-21T05:26:58;8.30;99.90
69747;DHT22;57018;50.278;19.134;2023-02-21T05:29:29;8.30;99.90
69747;DHT22;57018;50.278;19.134;2023-02-21T05:31:59;8.20;99.90
69747;DHT22;57018;50.278;19.134;2023-02-21T05:34:29;8.20;99.90
69747;DHT22;57018;50.278;19.134;2023-02-21T05:36:59;8.20;99.90
69747;DHT22;57018;50.278;19.134;2023-02-21T05:39:28;8.10;99.90
69747;DHT22;57018;50.278;19.134;2023-02-21T05:41:58;8.10;99.90
69747;DHT22;57018;50.278;19.134;2023-02-21T05:44:28;8.00;99.90
69747;DHT22;57018;50.278;19.134;2023-02-21T05:46:58;8.10;99.90
69747;DHT22;57018;50.278;19.134;2023-02-21T05:49:29;8.10;99.90
69747;DHT22;57018;50.278;19.134;2023-02-21T05:51:59;8.30;99.90
69747;DHT22;57018;50.278;19.134;2023-02-21T05:54:29;8.20;99.90
69747;DHT22;57018;50.278;19.134;2023-02-21T05:56:59;8.20;99.90
69747;DHT22;57018;50.278;19.134;2023-02-21T05:59:29;8.10;99.90
69747;DHT22;57018;50.278;19.134;2023-02-21T06:02:00;8.40;99.90
69747;DHT22;57018;50.278;19.134;2023-02-21T06:04:30;8.30;99.90
69747;DHT22;57018;50.278;19.134;2023-02-21T06:07:00;8.20;99.90
69747;DHT22;57018;50.278;19.134;2023-02-21T06:09:30;8.30;99.90
69747;DHT22;57018;50.278;19.134;2023-02-21T06:12:00;8.40;99.90
69747;DHT22;57018;50.278;19.134;2023-02-21T06:14:30;8.40;99.90
69747;DHT22;57018;50.278;19.134;2023-02-21T06:17:00;8.40;99.90
69747;DHT22;57018;50.278;19.134;2023-02-21T06:19:30;8.50;99.90
69747;DHT22;57018;50.278;19.134;2023-02-21T06:22:00;8.20;99.90
69747;DHT22;57018;50.278;19.134;2023-02-21T06:24:30;8.60;99.90
69747;DHT22;57018;50.278;19.134;2023-02-21T06:27:00;8.40;99.90
69747;DHT22;57018;50.278;19.134;2023-02-21T06:29:30;8.50;99.90
69747;DHT22;57018;50.278;19.134;2023-02-21T06:32:00;8.60;99.90
69747;DHT22;57018;50.278;19.134;2023-02-21T06:34:30;8.60;99.90
69747;DHT22;57018;50.278;19.134;2023-02-21T06:36:59;8.70;99.90
69747;DHT22;57018;50.278;19.134;2023-02-21T06:39:29;8.80;99.90
69747;DHT22;57018;50.278;19.134;2023-02-21T06:41:59;8.70;99.90
69747;DHT22;57018;50.278;19.134;2023-02-21T06:44:29;8.80;99.90
69747;DHT22;57018;50.278;19.134;2023-02-21T06:46:59;8.90;99.90
69747;DHT22;57018;50.278;19.134;2023-02-21T06:49:29;9.00;99.90
69747;DHT22;57018;50.278;19.134;2023-02-21T06:51:59;9.00;99.90
69747;DHT22;57018;50.278;19.134;2023-02-21T06:54:29;9.00;99.90
69747;DHT22;57018;50.278;19.134;2023-02-21T06:56:59;9.00;99.90
69747;DHT22;57018;50.278;19.134;2023-02-21T06:59:29;9.00;99.90
69747;DHT22;57018;50.278;19.134;2023-02-21T07:01:59;9.00;99.90
69747;DHT22;57018;50.278;19.134;2023-02-21T07:04:30;9.10;99.90
69747;DHT22;57018;50.278;19.134;2023-02-21T07:07:00;9.00;99.90
69747;DHT22;57018;50.278;19.134;2023-02-21T07:09:29;9.00;99.90
69747;DHT22;57018;50.278;19.134;2023-02-21T07:11:59;9.10;99.90
69747;DHT22;57018;50.278;19.134;2023-02-21T07:14:30;9.00;99.90
69747;DHT22;57018;50.278;19.134;2023-02-21T07:17:00;9.10;99.90
69747;DHT22;57018;50.278;19.134;2023-02-21T07:19:30;8.90;99.90
69747;DHT22;57018;50.278;19.134;2023-02-21T07:22:00;8.90;99.90
69747;DHT22;57018;50.278;19.134;2023-02-21T07:24:30;9.00;99.90
69747;DHT22;57018;50.278;19.134;2023-02-21T07:27:00;9.10;99.90
69747;DHT22;57018;50.278;19.134;2023-02-21T07:29:30;9.00;99.90
69747;DHT22;57018;50.278;19.134;2023-02-21T07:32:00;9.00;99.90
69747;DHT22;57018;50.278;19.134;2023-02-21T07:34:29;9.10;99.90
69747;DHT22;57018;50.278;19.134;2023-02-21T07:36:59;9.00;99.90
69747;DHT22;57018;50.278;19.134;2023-02-21T07:39:29;9.10;99.90
69747;DHT22;57018;50.278;19.134;2023-02-21T07:41:59;9.10;99.90
69747;DHT22;57018;50.278;19.134;2023-02-21T07:44:29;9.30;99.90
69747;DHT22;57018;50.278;19.134;2023-02-21T07:46:59;9.50;99.90
69747;DHT22;57018;50.278;19.134;2023-02-21T07:49:29;9.50;99.90
69747;DHT22;57018;50.278;19.134;2023-02-21T07:51:59;9.70;99.90
69747;DHT22;57018;50.278;19.134;2023-02-21T07:54:28;9.70;99.90
69747;DHT22;57018;50.278;19.134;2023-02-21T07:56:58;9.90;99.90
69747;DHT22;57018;50.278;19.134;2023-02-21T07:59:28;9.90;99.90
69747;DHT22;57018;50.278;19.134;2023-02-21T08:01:58;9.90;99.90
69747;DHT22;57018;50.278;19.134;2023-02-21T08:04:29;10.20;99.90
69747;DHT22;57018;50.278;19.134;2023-02-21T08:07:01;10.40;99.90
69747;DHT22;57018;50.278;19.134;2023-02-21T08:09:31;10.40;99.90
69747;DHT22;57018;50.278;19.134;2023-02-21T08:12:02;10.50;99.90
69747;DHT22;57018;50.278;19.134;2023-02-21T08:14:32;10.70;99.90
69747;DHT22;57018;50.278;19.134;2023-02-21T08:17:02;10.80;99.90
69747;DHT22;57018;50.278;19.134;2023-02-21T08:19:32;10.90;99.90
69747;DHT22;57018;50.278;19.134;2023-02-21T08:22:02;11.10;99.90
69747;DHT22;57018;50.278;19.134;2023-02-21T08:24:32;11.10;99.90
69747;DHT22;57018;50.278;19.134;2023-02-21T08:27:02;11.10;99.90
69747;DHT22;57018;50.278;19.134;2023-02-21T08:29:31;11.10;99.90
69747;DHT22;57018;50.278;19.134;2023-02-21T08:32:02;11.10;99.90
69747;DHT22;57018;50.278;19.134;2023-02-21T08:34:32;11.10;99.90
69747;DHT22;57018;50.278;19.134;2023-02-21T08:37:01;10.90;99.90
69747;DHT22;57018;50.278;19.134;2023-02-21T08:39:34;10.80;99.90
69747;DHT22;57018;50.278;19.134;2023-02-21T08:42:04;10.80;99.90
69747;DHT22;57018;50.278;19.134;2023-02-21T08:44:33;10.60;99.90
69747;DHT22;57018;50.278;19.134;2023-02-21T08:47:03;10.50;99.90
69747;DHT22;57018;50.278;19.134;2023-02-21T08:49:38;10.40;99.90
69747;DHT22;57018;50.278;19.134;2023-02-21T08:52:10;10.40;99.90
69747;DHT22;57018;50.278;19.134;2023-02-21T08:54:42;10.10;99.90
69747;DHT22;57018;50.278;19.134;2023-02-21T08:57:14;10.10;99.90
69747;DHT22;57018;50.278;19.134;2023-02-21T08:59:46;10.30;99.90
69747;DHT22;57018;50.278;19.134;2023-02-21T09:02:18;10.40;99.90
69747;DHT22;57018;50.278;19.134;2023-02-21T09:04:49;10.60;99.90
69747;DHT22;57018;50.278;19.134;2023-02-21T09:07:21;10.70;99.90
69747;DHT22;57018;50.278;19.134;2023-02-21T09:09:51;10.60;99.90
69747;DHT22;57018;50.278;19.134;2023-02-21T09:12:21;10.20;99.90
69747;DHT22;57018;50.278;19.134;2023-02-21T09:14:51;10.10;99.90
69747;DHT22;57018;50.278;19.134;2023-02-21T09:17:21;10.00;99.90
69747;DHT22;57018;50.278;19.134;2023-02-21T09:19:51;10.10;99.90
69747;DHT22;57018;50.278;19.134;2023-02-21T09:22:21;10.00;99.90
69747;DHT22;57018;50.278;19.134;2023-02-21T09:24:51;10.00;99.90
69747;DHT22;57018;50.278;19.134;2023-02-21T09:27:20;10.20;99.90
69747;DHT22;57018;50.278;19.134;2023-02-21T09:30:06;10.30;99.90
69747;DHT22;57018;50.278;19.134;2023-02-21T09:32:37;10.40;99.90
69747;DHT22;57018;50.278;19.134;2023-02-21T09:35:08;10.80;99.90
69747;DHT22;57018;50.278;19.134;2023-02-21T09:37:42;11.10;99.90
69747;DHT22;57018;50.278;19.134;2023-02-21T09:40:26;11.40;99.90
69747;DHT22;57018;50.278;19.134;2023-02-21T09:42:59;11.50;99.00
69747;DHT22;57018;50.278;19.134;2023-02-21T09:45:32;11.40;98.70
69747;DHT22;57018;50.278;19.134;2023-02-21T09:48:06;11.50;98.90
69747;DHT22;57018;50.278;19.134;2023-02-21T09:50:42;11.50;98.80
69747;DHT22;57018;50.278;19.134;2023-02-21T09:53:16;11.40;98.20
69747;DHT22;57018;50.278;19.134;2023-02-21T09:55:49;11.60;97.70
69747;DHT22;57018;50.278;19.134;2023-02-21T09:58:21;11.80;96.20
69747;DHT22;57018;50.278;19.134;2023-02-21T10:00:51;12.00;95.20
69747;DHT22;57018;50.278;19.134;2023-02-21T10:03:40;12.00;94.60
69747;DHT22;57018;50.278;19.134;2023-02-21T10:06:22;12.00;94.50
69747;DHT22;57018;50.278;19.134;2023-02-21T10:08:59;12.00;95.90
69747;DHT22;57018;50.278;19.134;2023-02-21T10:11:40;12.00;97.30
69747;DHT22;57018;50.278;19.134;2023-02-21T10:14:21;11.80;97.70
69747;DHT22;57018;50.278;19.134;2023-02-21T10:16:58;11.90;97.40
69747;DHT22;57018;50.278;19.134;2023-02-21T10:19:35;11.90;96.80
69747;DHT22;57018;50.278;19.134;2023-02-21T10:22:15;11.90;98.70
69747;DHT22;57018;50.278;19.134;2023-02-21T10:24:47;11.80;98.50
69747;DHT22;57018;50.278;19.134;2023-02-21T10:27:20;11.80;99.40
69747;DHT22;57018;50.278;19.134;2023-02-21T10:29:53;11.90;99.10
69747;DHT22;57018;50.278;19.134;2023-02-21T10:32:25;12.10;98.20
69747;DHT22;57018;50.278;19.134;2023-02-21T10:34:56;12.30;96.20
69747;DHT22;57018;50.278;19.134;2023-02-21T10:37:34;12.60;94.30
69747;DHT22;57018;50.278;19.134;2023-02-21T10:40:21;12.80;92.30
69747;DHT22;57018;50.278;19.134;2023-02-21T10:42:55;12.80;91.60
69747;DHT22;57018;50.278;19.134;2023-02-21T10:45:34;13.00;89.70
69747;DHT22;57018;50.278;19.134;2023-02-21T10:48:07;13.00;89.20
69747;DHT22;57018;50.278;19.134;2023-02-21T10:50:49;13.10;89.00
69747;DHT22;57018;50.278;19.134;2023-02-21T10:53:29;12.70;94.60
69747;DHT22;57018;50.278;19.134;2023-02-21T10:56:20;12.10;97.30
69747;DHT22;57018;50.278;19.134;2023-02-21T10:58:53;11.60;99.90
69747;DHT22;57018;50.278;19.134;2023-02-21T11:01:35;10.70;99.90
69747;DHT22;57018;50.278;19.134;2023-02-21T11:04:21;10.50;99.90
69747;DHT22;57018;50.278;19.134;2023-02-21T11:06:55;10.50;99.90
69747;DHT22;57018;50.278;19.134;2023-02-21T11:09:38;10.50;99.90
69747;DHT22;57018;50.278;19.134;2023-02-21T11:12:19;10.40;99.90
69747;DHT22;57018;50.278;19.134;2023-02-21T11:15:03;10.50;99.90
69747;DHT22;57018;50.278;19.134;2023-02-21T11:17:34;10.60;99.90
69747;DHT22;57018;50.278;19.134;2023-02-21T11:20:16;10.50;99.90
69747;DHT22;57018;50.278;19.134;2023-02-21T11:22:48;10.60;99.90
69747;DHT22;57018;50.278;19.134;2023-02-21T11:25:22;10.40;99.90
69747;DHT22;57018;50.278;19.134;2023-02-21T11:28:15;10.20;99.90
69747;DHT22;57018;50.278;19.134;2023-02-21T11:30:50;10.00;99.90
69747;DHT22;57018;50.278;19.134;2023-02-21T11:33:32;9.70;99.90
69747;DHT22;57018;50.278;19.134;2023-02-21T11:36:11;9.60;99.90
69747;DHT22;57018;50.278;19.134;2023-02-21T11:38:43;9.40;99.90
69747;DHT22;57018;50.278;19.134;2023-02-21T11:41:22;8.90;99.90
69747;DHT22;57018;50.278;19.134;2023-02-21T11:43:56;9.00;99.90
69747;DHT22;57018;50.278;19.134;2023-02-21T11:46:36;8.80;99.90
69747;DHT22;57018;50.278;19.134;2023-02-21T11:49:16;8.80;99.90
69747;DHT22;57018;50.278;19.134;2023-02-21T11:51:50;8.80;99.90
69747;DHT22;57018;50.278;19.134;2023-02-21T11:54:28;8.70;99.90
69747;DHT22;57018;50.278;19.134;2023-02-21T11:57:05;8.70;99.90
69747;DHT22;57018;50.278;19.134;2023-02-21T11:59:45;8.90;99.90
69747;DHT22;57018;50.278;19.134;2023-02-21T12:02:34;9.20;99.90
69747;DHT22;57018;50.278;19.134;2023-02-21T12:05:27;9.50;99.90
69747;DHT22;57018;50.278;19.134;2023-02-21T12:08:17;9.50;99.90
69747;DHT22;57018;50.278;19.134;2023-02-21T12:10:55;9.60;99.90
69747;DHT22;57018;50.278;19.134;2023-02-21T12:13:35;9.80;99.90
69747;DHT22;57018;50.278;19.134;2023-02-21T12:16:20;10.00;99.90
69747;DHT22;57018;50.278;19.134;2023-02-21T12:19:04;10.00;99.90
69747;DHT22;57018;50.278;19.134;2023-02-21T12:21:59;10.00;99.90
69747;DHT22;57018;50.278;19.134;2023-02-21T12:24:54;10.00;99.90
69747;DHT22;57018;50.278;19.134;2023-02-21T12:27:33;10.00;99.90
69747;DHT22;57018;50.278;19.134;2023-02-21T12:30:26;10.20;99.90
69747;DHT22;57018;50.278;19.134;2023-02-21T12:33:13;10.20;99.90
69747;DHT22;57018;50.278;19.134;2023-02-21T12:36:12;10.50;99.90
69747;DHT22;57018;50.278;19.134;2023-02-21T12:41:42;11.00;95.20
69747;DHT22;57018;50.278;19.134;2023-02-21T12:44:18;11.00;94.50
69747;DHT22;57018;50.278;19.134;2023-02-21T12:46:54;11.10;94.70
69747;DHT22;57018;50.278;19.134;2023-02-21T12:49:28;11.00;91.90
69747;DHT22;57018;50.278;19.134;2023-02-21T12:52:03;10.90;92.30
69747;DHT22;57018;50.278;19.134;2023-02-21T12:54:41;10.80;91.80
69747;DHT22;57018;50.278;19.134;2023-02-21T12:57:15;10.80;90.90
69747;DHT22;57018;50.278;19.134;2023-02-21T12:59:57;10.70;92.80
69747;DHT22;57018;50.278;19.134;2023-02-21T13:02:41;10.60;93.40
69747;DHT22;57018;50.278;19.134;2023-02-21T13:05:15;10.70;93.20
69747;DHT22;57018;50.278;19.134;2023-02-21T13:07:50;10.70;93.70
69747;DHT22;57018;50.278;19.134;2023-02-21T13:10:23;10.60;95.50
69747;DHT22;57018;50.278;19.134;2023-02-21T13:12:57;10.60;96.70
69747;DHT22;57018;50.278;19.134;2023-02-21T13:15:30;10.50;98.20
69747;DHT22;57018;50.278;19.134;2023-02-21T13:18:03;10.40;98.10
69747;DHT22;57018;50.278;19.134;2023-02-21T13:20:37;10.40;99.40
69747;DHT22;57018;50.278;19.134;2023-02-21T13:26:54;10.50;98.10
69747;DHT22;57018;50.278;19.134;2023-02-21T13:29:29;10.80;95.20
69747;DHT22;57018;50.278;19.134;2023-02-21T13:32:05;10.90;92.50
69747;DHT22;57018;50.278;19.134;2023-02-21T13:34:39;10.90;92.80
69747;DHT22;57018;50.278;19.134;2023-02-21T13:37:22;10.70;93.20
69747;DHT22;57018;50.278;19.134;2023-02-21T13:39:55;10.70;94.10
69747;DHT22;57018;50.278;19.134;2023-02-21T13:42:30;10.60;93.80
69747;DHT22;57018;50.278;19.134;2023-02-21T13:45:13;10.50;95.20
69747;DHT22;57018;50.278;19.134;2023-02-21T13:50:56;10.50;94.10
69747;DHT22;57018;50.278;19.134;2023-02-21T13:53:28;10.70;95.30
69747;DHT22;57018;50.278;19.134;2023-02-21T13:56:40;10.80;94.80
69747;DHT22;57018;50.278;19.134;2023-02-21T13:59:35;11.00;94.30
69747;DHT22;57018;50.278;19.134;2023-02-21T14:02:25;11.20;94.40
69747;DHT22;57018;50.278;19.134;2023-02-21T14:05:05;11.30;93.90
69747;DHT22;57018;50.278;19.134;2023-02-21T14:07:56;11.40;92.70
69747;DHT22;57018;50.278;19.134;2023-02-21T14:10:39;11.40;91.70
69747;DHT22;57018;50.278;19.134;2023-02-21T14:13:20;11.40;91.40
69747;DHT22;57018;50.278;19.134;2023-02-21T14:15:57;11.30;91.60
69747;DHT22;57018;50.278;19.134;2023-02-21T14:18:31;11.20;91.90
69747;DHT22;57018;50.278;19.134;2023-02-21T14:21:13;11.10;91.80
69747;DHT22;57018;50.278;19.134;2023-02-21T14:23:48;11.10;92.80
69747;DHT22;57018;50.278;19.134;2023-02-21T14:26:44;11.00;93.80
69747;DHT22;57018;50.278;19.134;2023-02-21T14:29:31;11.10;94.00
69747;DHT22;57018;50.278;19.134;2023-02-21T14:32:24;11.10;94.20
69747;DHT22;57018;50.278;19.134;2023-02-21T14:34:57;11.10;94.20
69747;DHT22;57018;50.278;19.134;2023-02-21T14:37:34;11.20;92.40
69747;DHT22;57018;50.278;19.134;2023-02-21T14:40:25;11.10;89.90
69747;DHT22;57018;50.278;19.134;2023-02-21T14:43:18;11.00;87.30
69747;DHT22;57018;50.278;19.134;2023-02-21T14:46:09;11.10;88.70
69747;DHT22;57018;50.278;19.134;2023-02-21T14:52:05;10.80;89.30
69747;DHT22;57018;50.278;19.134;2023-02-21T14:55:01;10.70;90.70
69747;DHT22;57018;50.278;19.134;2023-02-21T14:58:03;10.50;92.20
69747;DHT22;57018;50.278;19.134;2023-02-21T15:00:50;10.50;95.10
69747;DHT22;57018;50.278;19.134;2023-02-21T15:03:30;10.30;96.50
69747;DHT22;57018;50.278;19.134;2023-02-21T15:06:06;10.30;97.20
69747;DHT22;57018;50.278;19.134;2023-02-21T15:08:43;10.20;98.40
69747;DHT22;57018;50.278;19.134;2023-02-21T15:11:25;10.10;98.70
69747;DHT22;57018;50.278;19.134;2023-02-21T15:14:18;10.20;98.40
69747;DHT22;57018;50.278;19.134;2023-02-21T15:16:54;10.20;98.60
69747;DHT22;57018;50.278;19.134;2023-02-21T15:19:28;10.30;98.30
69747;DHT22;57018;50.278;19.134;2023-02-21T15:22:21;10.30;97.00
69747;DHT22;57018;50.278;19.134;2023-02-21T15:25:19;10.30;96.90
69747;DHT22;57018;50.278;19.134;2023-02-21T15:27:59;10.30;96.80
69747;DHT22;57018;50.278;19.134;2023-02-21T15:30:32;10.20;96.20
69747;DHT22;57018;50.278;19.134;2023-02-21T15:33:13;10.20;96.30
69747;DHT22;57018;50.278;19.134;2023-02-21T15:35:48;10.20;96.00
69747;DHT22;57018;50.278;19.134;2023-02-21T15:38:25;10.20;96.60
69747;DHT22;57018;50.278;19.134;2023-02-21T15:41:01;10.20;96.30
69747;DHT22;57018;50.278;19.134;2023-02-21T15:43:43;10.00;96.10
69747;DHT22;57018;50.278;19.134;2023-02-21T15:46:18;10.10;96.20
69747;DHT22;57018;50.278;19.134;2023-02-21T15:48:49;10.20;95.90
69747;DHT22;57018;50.278;19.134;2023-02-21T15:51:20;10.10;95.70
69747;DHT22;57018;50.278;19.134;2023-02-21T15:54:20;10.20;95.50
69747;DHT22;57018;50.278;19.134;2023-02-21T15:57:01;10.30;96.00
69747;DHT22;57018;50.278;19.134;2023-02-21T15:59:32;10.30;95.20
69747;DHT22;57018;50.278;19.134;2023-02-21T16:02:21;10.30;95.40
69747;DHT22;57018;50.278;19.134;2023-02-21T16:04:53;10.30;95.10
69747;DHT22;57018;50.278;19.134;2023-02-21T16:07:28;10.20;94.80
69747;DHT22;57018;50.278;19.134;2023-02-21T16:10:05;10.10;95.30
69747;DHT22;57018;50.278;19.134;2023-02-21T16:12:40;10.10;95.30
69747;DHT22;57018;50.278;19.134;2023-02-21T16:15:23;9.80;95.10
69747;DHT22;57018;50.278;19.134;2023-02-21T16:17:56;9.80;95.20
69747;DHT22;57018;50.278;19.134;2023-02-21T16:20:31;9.70;95.10
69747;DHT22;57018;50.278;19.134;2023-02-21T16:23:25;9.60;95.50
69747;DHT22;57018;50.278;19.134;2023-02-21T16:25:58;9.60;96.10
69747;DHT22;57018;50.278;19.134;2023-02-21T16:28:29;9.60;96.60
69747;DHT22;57018;50.278;19.134;2023-02-21T16:31:02;9.50;97.30
69747;DHT22;57018;50.278;19.134;2023-02-21T16:33:33;9.50;96.80
69747;DHT22;57018;50.278;19.134;2023-02-21T16:36:09;9.40;97.20
69747;DHT22;57018;50.278;19.134;2023-02-21T16:38:44;9.50;97.60
69747;DHT22;57018;50.278;19.134;2023-02-21T16:41:15;9.40;98.10
69747;DHT22;57018;50.278;19.134;2023-02-21T16:43:46;9.30;98.60
69747;DHT22;57018;50.278;19.134;2023-02-21T16:46:21;9.30;98.70
69747;DHT22;57018;50.278;19.134;2023-02-21T16:48:53;9.10;98.10